createdAt,value
2023-05-06T00:01:58.612Z,93.25
2023-05-06T00:04:26.861Z,93.13
2023-05-06T00:06:54.310Z,93.43
2023-05-06T00:09:21.435Z,93.80
2023-05-06T00:11:48.998Z,94.03
2023-05-06T00:14:16.474Z,93.74
2023-05-06T00:16:43.801Z,93.85
2023-05-06T00:19:11.389Z,94.24
2023-05-06T00:21:38.922Z,94.13
2023-05-06T00:24:06.233Z,94.30
2023-05-06T00:26:33.644Z,94.37
2023-05-06T00:29:00.787Z,94.02
2023-05-06T00:31:28.054Z,94.66
2023-05-06T00:33:55.452Z,94.48
2023-05-06T00:36:22.566Z,94.59
2023-05-06T00:38:49.656Z,94.70
2023-05-06T00:41:17.042Z,94.32
2023-05-06T00:43:44.173Z,94.47
2023-05-06T00:46:11.728Z,94.31
2023-05-06T00:48:39.864Z,94.77
2023-05-06T00:51:07.114Z,94.81
2023-05-06T00:53:34.282Z,94.76
2023-05-06T00:56:01.732Z,94.80
2023-05-06T00:58:28.894Z,95.05
2023-05-06T01:00:56.590Z,94.80
2023-05-06T01:03:24.256Z,94.93
2023-05-06T01:06:02.495Z,95.09
2023-05-06T01:08:37.719Z,94.83
2023-05-06T01:11:17.820Z,94.98
2023-05-06T01:13:58.823Z,95.03
2023-05-06T01:16:27.292Z,95.23
2023-05-06T01:18:55.109Z,94.67
2023-05-06T01:21:23.159Z,93.85
2023-05-06T01:23:56.649Z,93.71
2023-05-06T01:26:24.661Z,93.39
2023-05-06T01:28:51.994Z,93.11
2023-05-06T01:31:27.297Z,92.80
2023-05-06T01:34:00.260Z,92.40
2023-05-06T01:36:53.744Z,92.11
2023-05-06T01:39:25.470Z,92.22
2023-05-06T01:41:54.241Z,92.37
2023-05-06T01:44:22.677Z,92.72
2023-05-06T01:46:50.313Z,93.17
2023-05-06T01:49:19.178Z,93.45
2023-05-06T01:51:50.385Z,93.40
2023-05-06T01:54:18.040Z,93.57
2023-05-06T01:56:45.291Z,93.63
2023-05-06T01:59:12.809Z,94.20
2023-05-06T02:01:40.044Z,94.34
2023-05-06T02:04:07.623Z,94.66
2023-05-06T02:06:34.974Z,94.90
2023-05-06T02:09:02.225Z,95.22
2023-05-06T02:11:30.538Z,95.44
2023-05-06T02:13:59.195Z,95.53
2023-05-06T02:16:29.460Z,95.60
2023-05-06T02:18:56.966Z,95.75
2023-05-06T02:21:24.193Z,96.67
2023-05-06T02:23:51.640Z,96.62
2023-05-06T02:26:18.796Z,97.06
2023-05-06T02:28:45.966Z,96.84
2023-05-06T02:31:15.011Z,96.63
2023-05-06T02:33:42.422Z,96.58
2023-05-06T02:36:11.269Z,96.47
2023-05-06T02:38:38.787Z,96.41
2023-05-06T02:41:05.977Z,96.85
2023-05-06T02:43:33.166Z,96.54
2023-05-06T02:46:00.699Z,96.62
2023-05-06T02:48:27.917Z,96.97
2023-05-06T02:50:55.108Z,97.45
2023-05-06T02:53:22.613Z,97.39
2023-05-06T02:55:49.819Z,97.61
2023-05-06T02:58:17.021Z,97.29
2023-05-06T03:00:44.525Z,97.61
2023-05-06T03:03:11.777Z,97.94
2023-05-06T03:05:38.947Z,98.11
2023-05-06T03:08:06.537Z,97.52
2023-05-06T03:10:34.021Z,97.01
2023-05-06T03:13:01.578Z,97.30
2023-05-06T03:15:29.412Z,97.50
2023-05-06T03:17:56.750Z,97.67
2023-05-06T03:20:24.559Z,97.49
2023-05-06T03:22:52.503Z,97.08
2023-05-06T03:25:20.097Z,96.54
2023-05-06T03:27:47.820Z,96.26
2023-05-06T03:30:16.222Z,96.74
2023-05-06T03:32:43.872Z,96.49
2023-05-06T03:35:11.725Z,96.43
2023-05-06T03:37:39.803Z,97.14
2023-05-06T03:40:07.838Z,97.66
2023-05-06T03:42:35.079Z,97.01
2023-05-06T03:45:03.183Z,96.59
2023-05-06T03:47:31.588Z,97.30
2023-05-06T03:49:59.563Z,97.13
2023-05-06T03:52:27.196Z,97.94
2023-05-06T03:54:54.567Z,98.08
2023-05-06T03:57:21.799Z,97.96
2023-05-06T03:59:49.623Z,97.85
2023-05-06T04:02:17.091Z,98.37
2023-05-06T04:04:44.789Z,98.62
2023-05-06T04:07:12.220Z,98.79
2023-05-06T04:09:39.365Z,99.29
2023-05-06T04:12:07.190Z,99.33
2023-05-06T04:14:35.019Z,99.30
2023-05-06T04:17:02.956Z,99.64
2023-05-06T04:19:30.520Z,99.55
2023-05-06T04:21:58.674Z,98.94
2023-05-06T04:24:28.504Z,99.14
2023-05-06T04:26:57.538Z,99.25
2023-05-06T04:29:25.280Z,99.21
2023-05-06T04:31:53.999Z,99.43
2023-05-06T04:34:21.721Z,99.37
2023-05-06T04:36:49.524Z,99.21
2023-05-06T04:39:18.083Z,98.75
2023-05-06T04:41:46.110Z,98.67
2023-05-06T04:44:13.990Z,97.83
2023-05-06T04:46:42.088Z,96.88
2023-05-06T04:49:11.901Z,96.39
2023-05-06T04:51:39.966Z,96.42
2023-05-06T04:54:07.349Z,96.09
2023-05-06T04:56:35.270Z,95.97
2023-05-06T04:59:02.488Z,95.90
2023-05-06T05:01:29.864Z,96.58
2023-05-06T05:03:57.410Z,96.38
2023-05-06T05:06:24.572Z,95.15
2023-05-06T05:08:54.265Z,95.50
2023-05-06T05:11:23.483Z,95.90
2023-05-06T05:13:51.147Z,96.05
2023-05-06T05:16:18.431Z,95.40
2023-05-06T05:18:46.553Z,94.65
2023-05-06T05:21:15.712Z,94.38
2023-05-06T05:23:42.937Z,94.02
2023-05-06T05:26:10.446Z,92.54
2023-05-06T05:28:38.415Z,92.59
2023-05-06T05:31:06.340Z,92.56
2023-05-06T05:33:35.700Z,92.23
2023-05-06T05:36:04.187Z,90.29
2023-05-06T05:38:31.510Z,90.46
2023-05-06T05:40:59.474Z,90.46
2023-05-06T05:43:27.049Z,89.52
2023-05-06T05:45:54.400Z,89.54
2023-05-06T05:48:21.888Z,89.39
2023-05-06T05:50:49.075Z,88.83
2023-05-06T05:53:16.280Z,88.21
2023-05-06T05:55:43.903Z,87.08
2023-05-06T05:58:11.701Z,86.94
2023-05-06T06:00:39.175Z,86.73
2023-05-06T06:03:07.055Z,85.31
2023-05-06T06:05:34.562Z,83.53
2023-05-06T06:08:03.794Z,82.97
2023-05-06T06:10:32.075Z,81.71
2023-05-06T06:13:00.965Z,80.88
2023-05-06T06:15:29.409Z,81.70
2023-05-06T06:17:57.063Z,83.10
2023-05-06T06:20:25.368Z,81.06
2023-05-06T06:22:53.134Z,80.97
2023-05-06T06:25:21.589Z,79.89
2023-05-06T06:27:48.834Z,80.79
2023-05-06T06:30:16.170Z,79.60
2023-05-06T06:32:51.660Z,79.61
2023-05-06T06:35:20.160Z,78.12
2023-05-06T06:37:47.674Z,80.04
2023-05-06T06:40:15.257Z,79.32
2023-05-06T06:42:42.451Z,79.71
2023-05-06T06:45:17.264Z,79.18
2023-05-06T06:47:44.450Z,78.76
2023-05-06T06:50:12.049Z,75.91
2023-05-06T06:52:39.213Z,75.89
2023-05-06T06:55:06.797Z,74.94
2023-05-06T06:57:34.362Z,75.18
2023-05-06T07:00:01.578Z,74.04
2023-05-06T07:02:29.264Z,73.98
2023-05-06T07:04:56.773Z,73.87
2023-05-06T07:07:24.015Z,74.67
2023-05-06T07:09:51.280Z,75.41
2023-05-06T07:12:18.736Z,75.11
2023-05-06T07:14:46.363Z,75.39
2023-05-06T07:17:13.666Z,73.66
2023-05-06T07:19:41.281Z,74.10
2023-05-06T07:22:08.491Z,72.54
2023-05-06T07:24:35.752Z,71.68
2023-05-06T07:27:04.250Z,71.95
2023-05-06T07:29:31.511Z,71.27
2023-05-06T07:31:58.674Z,70.43
2023-05-06T07:34:26.139Z,70.70
2023-05-06T07:36:53.292Z,70.63
2023-05-06T07:39:20.626Z,69.86
2023-05-06T07:41:48.100Z,71.11
2023-05-06T07:44:15.256Z,72.64
2023-05-06T07:46:42.653Z,71.38
2023-05-06T07:49:10.343Z,71.84
2023-05-06T07:51:37.559Z,72.28
2023-05-06T07:54:04.815Z,71.83
2023-05-06T07:56:32.275Z,72.50
2023-05-06T07:59:00.096Z,71.68
2023-05-06T08:01:28.996Z,69.78
2023-05-06T08:03:56.602Z,69.03
2023-05-06T08:06:24.147Z,67.31
2023-05-06T08:08:51.341Z,67.02
2023-05-06T08:11:19.458Z,66.78
2023-05-06T08:13:47.234Z,67.47
2023-05-06T08:16:14.512Z,67.44
2023-05-06T08:18:42.097Z,65.84
2023-05-06T08:21:09.356Z,64.41
2023-05-06T08:23:36.558Z,63.26
2023-05-06T08:26:04.052Z,63.05
2023-05-06T08:28:31.611Z,63.20
2023-05-06T08:30:58.809Z,62.57
2023-05-06T08:33:26.275Z,61.44
2023-05-06T08:35:57.570Z,61.64
2023-05-06T08:38:25.969Z,62.24
2023-05-06T08:40:54.353Z,62.64
2023-05-06T08:43:22.028Z,61.87
2023-05-06T08:45:49.675Z,63.28
2023-05-06T08:48:17.054Z,61.93
2023-05-06T08:50:44.427Z,60.91
2023-05-06T08:53:13.411Z,60.96
2023-05-06T08:55:42.081Z,59.76
2023-05-06T08:58:11.458Z,58.99
2023-05-06T09:00:39.270Z,59.64
2023-05-06T09:03:06.694Z,60.24
2023-05-06T09:05:33.926Z,57.93
2023-05-06T09:08:01.287Z,58.76
2023-05-06T09:10:33.021Z,60.00
2023-05-06T09:13:00.171Z,60.39
2023-05-06T09:15:27.687Z,59.19
2023-05-06T09:17:55.373Z,57.62
2023-05-06T09:20:22.634Z,57.78
2023-05-06T09:22:50.763Z,56.31
2023-05-06T09:25:17.961Z,56.09
2023-05-06T09:27:45.070Z,56.45
2023-05-06T09:30:13.411Z,53.84
2023-05-06T09:32:41.165Z,54.27
2023-05-06T09:35:10.392Z,54.99
2023-05-06T09:37:38.165Z,56.30
2023-05-06T09:40:06.063Z,52.01
2023-05-06T09:42:34.156Z,50.75
2023-05-06T09:45:02.894Z,51.63
2023-05-06T09:47:35.788Z,52.14
2023-05-06T09:50:03.881Z,53.76
2023-05-06T09:52:32.545Z,52.20
2023-05-06T09:55:00.188Z,50.78
2023-05-06T09:57:30.826Z,50.45
2023-05-06T09:59:58.319Z,50.09
2023-05-06T10:02:26.688Z,51.50
2023-05-06T10:04:57.373Z,51.58
2023-05-06T10:07:28.760Z,50.98
2023-05-06T10:09:57.020Z,51.53
2023-05-06T10:12:24.257Z,51.09
2023-05-06T10:14:51.485Z,52.63
2023-05-06T10:17:19.112Z,52.23
2023-05-06T10:19:46.756Z,52.03
2023-05-06T10:22:34.628Z,50.63
2023-05-06T10:25:19.336Z,49.06
2023-05-06T10:27:48.139Z,49.33
2023-05-06T10:30:19.237Z,45.88
2023-05-06T10:32:46.917Z,44.77
2023-05-06T10:35:41.453Z,44.44
2023-05-06T10:38:34.685Z,46.80
2023-05-06T10:41:02.455Z,47.68
2023-05-06T10:43:34.148Z,47.37
2023-05-06T10:46:09.197Z,47.11
2023-05-06T10:48:38.942Z,45.21
2023-05-06T10:51:27.205Z,45.81
2023-05-06T10:54:04.654Z,47.19
2023-05-06T10:56:57.296Z,46.99
2023-05-06T10:59:26.504Z,46.06
2023-05-06T11:02:02.524Z,48.33
2023-05-06T11:04:31.313Z,46.29
2023-05-06T11:07:15.017Z,46.86
2023-05-06T11:09:54.887Z,45.68
2023-05-06T11:12:22.950Z,45.19
2023-05-06T11:14:50.415Z,45.12
2023-05-06T11:17:31.870Z,45.26
2023-05-06T11:20:31.919Z,44.90
2023-05-06T11:22:59.061Z,44.25
2023-05-06T11:25:40.256Z,45.37
2023-05-06T11:28:11.761Z,47.33
2023-05-06T11:30:42.211Z,46.26
2023-05-06T11:33:14.388Z,46.88
2023-05-06T11:35:41.904Z,47.82
2023-05-06T11:38:09.310Z,49.75
2023-05-06T11:40:36.890Z,47.55
2023-05-06T11:43:14.076Z,44.82
2023-05-06T11:45:42.058Z,46.15
2023-05-06T11:48:14.762Z,47.99
2023-05-06T11:50:47.225Z,48.54
2023-05-06T11:53:18.936Z,46.25
2023-05-06T11:55:46.878Z,47.59
2023-05-06T11:58:24.985Z,47.27
2023-05-06T12:01:03.025Z,46.41
2023-05-06T12:03:31.834Z,47.14
2023-05-06T12:05:59.494Z,47.64
2023-05-06T12:08:37.238Z,49.01
2023-05-06T12:11:06.798Z,49.13
2023-05-06T12:13:37.902Z,50.69
2023-05-06T12:16:08.282Z,49.55
2023-05-06T12:18:36.232Z,48.74
2023-05-06T12:21:03.700Z,49.26
2023-05-06T12:23:31.285Z,48.94
2023-05-06T12:26:06.197Z,49.52
2023-05-06T12:28:36.248Z,49.65
2023-05-06T12:31:23.196Z,49.00
2023-05-06T12:33:50.930Z,50.64
2023-05-06T12:36:18.840Z,50.34
2023-05-06T12:39:02.004Z,50.52
2023-05-06T12:41:43.722Z,48.37
2023-05-06T12:44:33.757Z,49.45
2023-05-06T12:47:05.635Z,50.10
2023-05-06T12:49:59.108Z,50.25
2023-05-06T12:52:29.572Z,48.95
2023-05-06T12:54:57.211Z,48.93
2023-05-06T12:57:24.383Z,49.89
2023-05-06T12:59:53.746Z,50.03
2023-05-06T13:02:21.140Z,49.16
2023-05-06T13:04:49.444Z,51.68
2023-05-06T13:07:17.079Z,50.85
2023-05-06T13:09:45.053Z,49.83
2023-05-06T13:12:12.324Z,50.43
2023-05-06T13:14:40.413Z,50.98
2023-05-06T13:17:08.270Z,50.50
2023-05-06T13:19:35.903Z,50.66
2023-05-06T13:22:03.403Z,49.35
2023-05-06T13:24:32.188Z,50.12
2023-05-06T13:27:01.353Z,48.71
2023-05-06T13:29:29.772Z,49.77
2023-05-06T13:31:57.646Z,51.08
2023-05-06T13:34:24.943Z,50.23
2023-05-06T13:36:54.600Z,50.22
2023-05-06T13:39:21.929Z,49.83
2023-05-06T13:41:52.578Z,49.28
2023-05-06T13:44:20.515Z,48.85
2023-05-06T13:46:48.278Z,50.47
2023-05-06T13:49:15.643Z,49.86
2023-05-06T13:51:43.096Z,53.14
2023-05-06T13:54:10.316Z,54.54
2023-05-06T13:56:37.593Z,56.02
2023-05-06T13:59:05.087Z,57.20
2023-05-06T14:01:32.346Z,57.63
2023-05-06T14:04:00.180Z,58.06
2023-05-06T14:06:27.714Z,58.11
2023-05-06T14:08:55.722Z,58.03
2023-05-06T14:11:23.192Z,59.43
2023-05-06T14:13:50.432Z,59.40
2023-05-06T14:16:17.696Z,60.71
2023-05-06T14:18:45.251Z,61.06
2023-05-06T14:21:12.325Z,62.19
2023-05-06T14:23:39.525Z,64.58
2023-05-06T14:26:07.472Z,65.02
2023-05-06T14:28:34.642Z,66.02
2023-05-06T14:31:01.856Z,66.27
2023-05-06T14:33:29.326Z,67.14
2023-05-06T14:35:58.234Z,67.53
2023-05-06T14:38:25.383Z,68.31
2023-05-06T14:40:52.827Z,68.67
2023-05-06T14:43:20.233Z,69.40
2023-05-06T14:45:47.600Z,69.15
2023-05-06T14:48:15.647Z,69.33
2023-05-06T14:50:42.771Z,69.06
2023-05-06T14:53:09.940Z,68.86
2023-05-06T14:55:37.496Z,68.71
2023-05-06T14:58:04.700Z,69.28
2023-05-06T15:00:31.865Z,69.48
2023-05-06T15:02:59.557Z,69.09
2023-05-06T15:05:27.046Z,69.05
2023-05-06T15:07:54.264Z,68.05
2023-05-06T15:10:21.993Z,68.41
2023-05-06T15:12:49.151Z,67.97
2023-05-06T15:15:16.320Z,68.24
2023-05-06T15:17:43.803Z,68.46
2023-05-06T15:20:11.462Z,67.80
2023-05-06T15:22:39.666Z,68.11
2023-05-06T15:25:09.368Z,68.14
2023-05-06T15:27:39.392Z,68.20
2023-05-06T15:30:08.436Z,68.87
2023-05-06T15:32:35.626Z,68.87
2023-05-06T15:35:04.970Z,69.15
2023-05-06T15:37:33.792Z,69.43
2023-05-06T15:40:01.026Z,69.81
2023-05-06T15:42:29.511Z,69.08
2023-05-06T15:44:57.750Z,69.48
2023-05-06T15:47:25.023Z,69.20
2023-05-06T15:49:55.028Z,70.80
2023-05-06T15:52:24.673Z,69.52
2023-05-06T15:54:51.845Z,68.79
2023-05-06T15:57:19.162Z,68.36
2023-05-06T15:59:47.041Z,68.27
2023-05-06T16:02:26.912Z,68.05
2023-05-06T16:04:54.898Z,67.22
2023-05-06T16:07:22.211Z,69.17
2023-05-06T16:09:50.300Z,68.85
2023-05-06T16:12:17.685Z,68.90
2023-05-06T16:14:44.790Z,68.51
2023-05-06T16:17:11.890Z,67.60
2023-05-06T16:19:39.379Z,67.31
2023-05-06T16:22:06.458Z,67.21
2023-05-06T16:24:33.569Z,67.62
2023-05-06T16:27:01.192Z,68.02
2023-05-06T16:29:28.306Z,67.54
2023-05-06T16:31:55.452Z,66.65
2023-05-06T16:34:22.943Z,68.77
2023-05-06T16:36:50.693Z,68.51
2023-05-06T16:39:17.821Z,69.85
2023-05-06T16:41:46.501Z,72.29
2023-05-06T16:44:13.606Z,73.19
2023-05-06T16:46:40.809Z,74.26
2023-05-06T16:49:08.462Z,75.61
2023-05-06T16:51:36.193Z,76.25
2023-05-06T16:54:03.427Z,76.67
2023-05-06T16:56:43.901Z,77.36
2023-05-06T16:59:15.604Z,78.98
2023-05-06T17:01:43.059Z,79.89
2023-05-06T17:04:10.389Z,79.62
2023-05-06T17:06:37.516Z,80.71
2023-05-06T17:09:04.986Z,81.55
2023-05-06T17:11:32.064Z,82.27
2023-05-06T17:13:59.169Z,81.84
2023-05-06T17:16:26.608Z,82.09
2023-05-06T17:18:53.744Z,82.51
2023-05-06T17:21:21.363Z,83.12
2023-05-06T17:23:48.791Z,83.40
2023-05-06T17:26:17.796Z,83.90
2023-05-06T17:28:45.134Z,84.08
2023-05-06T17:31:14.485Z,84.21
2023-05-06T17:33:41.616Z,85.12
2023-05-06T17:36:09.006Z,84.98
2023-05-06T17:38:36.544Z,85.21
2023-05-06T17:41:03.697Z,85.69
2023-05-06T17:43:30.872Z,86.22
2023-05-06T17:45:58.368Z,86.25
2023-05-06T17:48:25.580Z,86.08
2023-05-06T17:50:52.706Z,86.24
2023-05-06T17:53:20.137Z,86.80
2023-05-06T17:55:47.235Z,87.03
2023-05-06T17:58:14.302Z,87.35
2023-05-06T18:00:42.137Z,86.95
2023-05-06T18:03:09.606Z,87.53
2023-05-06T18:05:36.826Z,87.82
2023-05-06T18:08:04.852Z,88.27
2023-05-06T18:10:32.312Z,88.30
2023-05-06T18:12:59.458Z,88.27
2023-05-06T18:15:26.600Z,88.76
2023-05-06T18:17:54.291Z,88.85
2023-05-06T18:20:21.472Z,88.83
2023-05-06T18:22:48.884Z,89.08
2023-05-06T18:25:16.345Z,89.48
2023-05-06T18:27:43.568Z,89.47
2023-05-06T18:30:11.003Z,89.61
2023-05-06T18:32:38.518Z,89.96
2023-05-06T18:35:06.075Z,89.84
2023-05-06T18:37:33.231Z,90.03
2023-05-06T18:40:00.748Z,90.10
2023-05-06T18:42:27.835Z,90.36
2023-05-06T18:44:56.388Z,90.56
2023-05-06T18:47:25.697Z,90.90
2023-05-06T18:49:57.528Z,91.29
2023-05-06T18:52:24.976Z,91.64
2023-05-06T18:54:52.129Z,92.00
2023-05-06T18:57:23.524Z,92.02
2023-05-06T18:59:51.059Z,92.26
2023-05-06T19:02:18.394Z,92.15
2023-05-06T19:04:45.504Z,92.23
2023-05-06T19:07:16.159Z,92.55
2023-05-06T19:09:43.521Z,91.96
2023-05-06T19:12:11.494Z,91.94
2023-05-06T19:14:39.261Z,92.28
2023-05-06T19:17:06.758Z,92.01
2023-05-06T19:19:36.066Z,92.27
2023-05-06T19:22:04.149Z,92.97
2023-05-06T19:24:31.425Z,93.42
2023-05-06T19:26:58.609Z,94.01
2023-05-06T19:29:26.069Z,94.57
2023-05-06T19:31:53.278Z,94.91
2023-05-06T19:34:20.897Z,94.58
2023-05-06T19:36:48.344Z,94.67
2023-05-06T19:39:16.371Z,94.60
2023-05-06T19:41:43.596Z,94.87
2023-05-06T19:44:11.087Z,94.87
2023-05-06T19:46:38.326Z,95.18
2023-05-06T19:49:06.401Z,95.39
2023-05-06T19:51:33.868Z,93.71
2023-05-06T19:54:01.051Z,91.92
2023-05-06T19:56:28.214Z,90.55
2023-05-06T19:58:55.667Z,90.24
2023-05-06T20:01:26.128Z,90.15
2023-05-06T20:03:55.067Z,90.87
2023-05-06T20:06:22.332Z,90.79
2023-05-06T20:08:49.502Z,90.67
2023-05-06T20:11:16.956Z,90.35
2023-05-06T20:13:44.179Z,90.21
2023-05-06T20:16:12.496Z,90.00
2023-05-06T20:18:40.602Z,90.07
2023-05-06T20:21:07.783Z,94.18
2023-05-06T20:23:34.960Z,95.26
2023-05-06T20:26:02.338Z,96.33
2023-05-06T20:28:29.910Z,97.16
2023-05-06T20:30:59.677Z,97.96
2023-05-06T20:33:27.583Z,98.21
2023-05-06T20:35:55.451Z,98.26
2023-05-06T20:38:22.666Z,99.15
2023-05-06T20:40:50.276Z,100.00
2023-05-06T20:43:17.421Z,100.00
2023-05-06T20:45:44.627Z,100.00
2023-05-06T20:48:13.669Z,100.00
2023-05-06T20:50:42.489Z,100.00
2023-05-06T20:53:09.691Z,100.00
2023-05-06T20:55:37.235Z,100.00
2023-05-06T20:58:04.448Z,100.00
2023-05-06T21:00:31.663Z,100.00
2023-05-06T21:02:59.408Z,100.00
2023-05-06T21:05:26.811Z,100.00
2023-05-06T21:07:53.996Z,100.00
2023-05-06T21:10:21.518Z,100.00
2023-05-06T21:12:50.284Z,100.00
2023-05-06T21:15:17.917Z,100.00
2023-05-06T21:17:45.436Z,100.00
2023-05-06T21:20:13.150Z,100.00
2023-05-06T21:22:40.959Z,100.00
2023-05-06T21:25:09.083Z,100.00
2023-05-06T21:27:36.572Z,100.00
2023-05-06T21:30:04.288Z,100.00
2023-05-06T21:32:33.120Z,100.00
2023-05-06T21:35:02.330Z,100.00
2023-05-06T21:37:30.063Z,100.00
2023-05-06T21:39:57.628Z,100.00
2023-05-06T21:42:24.811Z,100.00
2023-05-06T21:44:51.969Z,100.00
2023-05-06T21:47:19.430Z,100.00
2023-05-06T21:49:46.591Z,100.00
2023-05-06T21:52:13.759Z,100.00
2023-05-06T21:54:41.220Z,100.00
2023-05-06T21:57:09.114Z,100.00
2023-05-06T21:59:36.369Z,100.00
2023-05-06T22:02:04.139Z,100.00
2023-05-06T22:04:31.705Z,100.00
2023-05-06T22:06:58.881Z,100.00
2023-05-06T22:09:26.105Z,100.00
2023-05-06T22:11:53.599Z,100.00
2023-05-06T22:14:24.301Z,100.00
2023-05-06T22:16:54.646Z,100.00
2023-05-06T22:19:21.892Z,100.00
2023-05-06T22:21:49.113Z,100.00
2023-05-06T22:24:16.712Z,100.00
2023-05-06T22:26:43.882Z,100.00
2023-05-06T22:29:11.121Z,100.00
2023-05-06T22:31:38.724Z,100.00
2023-05-06T22:34:05.971Z,100.00
2023-05-06T22:36:33.679Z,100.00
2023-05-06T22:39:01.828Z,100.00
2023-05-06T22:41:30.429Z,100.00
2023-05-06T22:43:59.231Z,100.00
2023-05-06T22:46:26.835Z,100.00
2023-05-06T22:48:54.074Z,100.00
2023-05-06T22:51:21.347Z,100.00
2023-05-06T22:53:48.796Z,100.00
2023-05-06T22:56:15.979Z,100.00
2023-05-06T22:58:43.605Z,100.00
2023-05-06T23:01:11.915Z,100.00
2023-05-06T23:03:39.116Z,100.00
2023-05-06T23:06:06.537Z,100.00
2023-05-06T23:08:34.064Z,100.00
2023-05-06T23:11:01.820Z,100.00
2023-05-06T23:13:31.250Z,100.00
2023-05-06T23:15:58.750Z,100.00
2023-05-06T23:18:25.966Z,100.00
2023-05-06T23:20:53.148Z,100.00
2023-05-06T23:23:20.578Z,100.00
2023-05-06T23:25:47.748Z,100.00
2023-05-06T23:28:14.984Z,100.00
2023-05-06T23:30:42.513Z,100.00
2023-05-06T23:33:09.757Z,100.00
2023-05-06T23:35:37.020Z,100.00
2023-05-06T23:38:04.546Z,100.00
2023-05-06T23:40:31.708Z,100.00
2023-05-06T23:42:58.869Z,100.00
2023-05-06T23:45:26.865Z,100.00
2023-05-06T23:47:54.694Z,100.00
2023-05-06T23:50:22.018Z,100.00
2023-05-06T23:52:49.505Z,100.00
2023-05-06T23:55:16.684Z,100.00
2023-05-06T23:57:44.068Z,100.00
